This is the latest recevied weather packets stored in our database for station/object OE-11061. If no packets are shown the sender has not sent any weather packets the latest 10 day(s).
| Time | Temp. | Humidity | Pressure | Rain* | Wind** | Luminosity | Snow |
|---|---|---|---|---|---|---|---|
| 1788026121 | 21.11° C | 66% | 1014.7 hPa | 0 mm | - | 37 W/m² | - |
| 1788025294 | 21.67° C | 67% | 1014.7 hPa | 0 mm | - | 52 W/m² | - |
| 1788024921 | 21.67° C | 66% | 1014.7 hPa | 0 mm | - | 97 W/m² | - |
| 1788024321 | 22.22° C | 59% | 1014.7 hPa | 0 mm | - | 97 W/m² | - |
| 1788023494 | 22.22° C | 62% | 1014.6 hPa | 0 mm | - | 52 W/m² | - |
| 1788023120 | 22.78° C | 58% | 1014.5 hPa | 0 mm | - | 90 W/m² | - |
| 1788022521 | 23.33° C | 50% | 1014.6 hPa | 0 mm | - | 157 W/m² | - |
| 1788021694 | 23.33° C | 54% | 1014.6 hPa | 0 mm | - | 142 W/m² | - |
| 1788021321 | 23.33° C | 49% | 1014.6 hPa | 0 mm | - | 217 W/m² | - |
| 1788020720 | 23.89° C | 48% | 1014.5 hPa | 0 mm | - | 336 W/m² | - |
| 1788019894 | 23.89° C | 50% | 1014.5 hPa | 0 mm | - | 344 W/m² | - |
| 1788019521 | 23.33° C | 57% | 1014.7 hPa | 0 mm | - | 232 W/m² | - |
| 1788018920 | 23.33° C | 51% | 1014.8 hPa | 0 mm | - | 179 W/m² | - |
| 1788018094 | 23.89° C | 47% | 1014.7 hPa | 0 mm | - | 246 W/m² | - |
| 1788017721 | 23.89° C | 47% | 1014.7 hPa | 0 mm | - | 381 W/m² | - |
| 1788017121 | 23.89° C | 45% | 1014.6 hPa | 0 mm | - | 456 W/m² | - |
| 1788016294 | 23.89° C | 46% | 1014.6 hPa | 0 mm | - | 433 W/m² | - |
| 1788015921 | 23.89° C | 47% | 1014.7 hPa | 0 mm | - | 463 W/m² | - |
| 1788015321 | 23.33° C | 48% | 1015 hPa | 0 mm | - | 164 W/m² | - |
| 1788014494 | 23.89° C | 44% | 1014.9 hPa | 0 mm | - | 336 W/m² | - |
| 1788014121 | 24.44° C | 47% | 1014.9 hPa | 0 mm | - | 590 W/m² | - |
| 1788013520 | 24.44° C | 47% | 1014.8 hPa | 0 mm | - | 612 W/m² | - |
| 1788012694 | 24.44° C | 47% | 1014.9 hPa | 0 mm | - | 597 W/m² | - |
| 1788012321 | 24.44° C | 48% | 1015.1 hPa | 0 mm | - | 508 W/m² | - |
| 1788011721 | 25° C | 47% | 1015 hPa | 0 mm | - | 687 W/m² | - |
* Rain latest hour (hover to see other rain measurements)
** Current wind speed in m/s (hover to see current wind gust speed)